sensor_id;sensor_type;location;lat;lon;timestamp;pressure;altitude;pressure_sealevel;temperature;humidity
47080;BME280;33067;49.296;14.470;2022-10-13T00:01:35;97630.49;;;14.70;38.40
47080;BME280;33067;49.296;14.470;2022-10-13T00:04:00;97630.46;;;14.80;38.23
47080;BME280;33067;49.296;14.470;2022-10-13T00:06:25;97630.70;;;14.54;38.29
47080;BME280;33067;49.296;14.470;2022-10-13T00:08:51;97636.29;;;14.42;38.58
47080;BME280;33067;49.296;14.470;2022-10-13T00:11:21;97637.76;;;14.75;38.35
47080;BME280;33067;49.296;14.470;2022-10-13T00:13:42;97643.63;;;14.44;38.83
47080;BME280;33067;49.296;14.470;2022-10-13T00:16:08;97640.81;;;14.70;38.28
47080;BME280;33067;49.296;14.470;2022-10-13T00:18:32;97640.87;;;14.61;38.40
47080;BME280;33067;49.296;14.470;2022-10-13T00:20:58;97638.73;;;14.59;38.32
47080;BME280;33067;49.296;14.470;2022-10-13T00:23:23;97637.89;;;14.30;38.46
47080;BME280;33067;49.296;14.470;2022-10-13T00:25:49;97637.50;;;14.47;38.54
47080;BME280;33067;49.296;14.470;2022-10-13T00:28:16;97636.98;;;14.17;38.70
47080;BME280;33067;49.296;14.470;2022-10-13T00:30:40;97636.76;;;14.75;38.41
47080;BME280;33067;49.296;14.470;2022-10-13T00:33:05;97638.10;;;14.49;38.30
47080;BME280;33067;49.296;14.470;2022-10-13T00:35:30;97637.69;;;14.44;38.29
47080;BME280;33067;49.296;14.470;2022-10-13T00:37:55;97639.08;;;14.45;38.34
47080;BME280;33067;49.296;14.470;2022-10-13T00:40:21;97642.49;;;14.20;38.73
47080;BME280;33067;49.296;14.470;2022-10-13T00:42:46;97642.85;;;14.36;38.53
47080;BME280;33067;49.296;14.470;2022-10-13T00:45:21;97638.94;;;14.46;38.07
47080;BME280;33067;49.296;14.470;2022-10-13T00:47:40;97636.34;;;14.38;38.01
47080;BME280;33067;49.296;14.470;2022-10-13T00:50:05;97632.40;;;14.23;38.22
47080;BME280;33067;49.296;14.470;2022-10-13T00:52:30;97629.29;;;13.99;38.62
47080;BME280;33067;49.296;14.470;2022-10-13T00:54:55;97627.70;;;14.12;38.37
47080;BME280;33067;49.296;14.470;2022-10-13T00:57:19;97625.22;;;14.13;38.36
47080;BME280;33067;49.296;14.470;2022-10-13T00:59:44;97622.64;;;14.11;38.38
47080;BME280;33067;49.296;14.470;2022-10-13T01:02:10;97625.67;;;14.16;38.30
47080;BME280;33067;49.296;14.470;2022-10-13T01:04:38;97628.05;;;14.17;38.22
47080;BME280;33067;49.296;14.470;2022-10-13T01:07:03;97626.58;;;14.41;38.13
47080;BME280;33067;49.296;14.470;2022-10-13T01:09:26;97624.86;;;14.30;38.01
47080;BME280;33067;49.296;14.470;2022-10-13T01:12:01;97617.78;;;13.90;38.12
47080;BME280;33067;49.296;14.470;2022-10-13T01:14:24;97613.88;;;13.92;38.32
47080;BME280;33067;49.296;14.470;2022-10-13T01:16:49;97613.20;;;13.92;38.65
47080;BME280;33067;49.296;14.470;2022-10-13T01:19:21;97614.69;;;13.86;38.84
47080;BME280;33067;49.296;14.470;2022-10-13T01:21:38;97615.35;;;13.62;38.93
47080;BME280;33067;49.296;14.470;2022-10-13T01:26:41;97608.28;;;13.87;38.65
47080;BME280;33067;49.296;14.470;2022-10-13T01:29:05;97606.60;;;13.52;38.55
47080;BME280;33067;49.296;14.470;2022-10-13T01:31:19;97605.29;;;13.61;38.50
47080;BME280;33067;49.296;14.470;2022-10-13T01:33:44;97601.33;;;12.97;38.66
47080;BME280;33067;49.296;14.470;2022-10-13T01:36:15;97600.88;;;13.26;39.07
47080;BME280;33067;49.296;14.470;2022-10-13T01:38:35;97597.31;;;13.71;38.85
47080;BME280;33067;49.296;14.470;2022-10-13T01:41:03;97594.04;;;13.33;38.71
47080;BME280;33067;49.296;14.470;2022-10-13T01:43:27;97592.21;;;13.59;38.44
47080;BME280;33067;49.296;14.470;2022-10-13T01:45:53;97590.37;;;13.65;38.46
47080;BME280;33067;49.296;14.470;2022-10-13T01:48:14;97591.10;;;13.31;38.58
47080;BME280;33067;49.296;14.470;2022-10-13T01:50:40;97593.29;;;13.42;38.75
47080;BME280;33067;49.296;14.470;2022-10-13T01:53:06;97594.75;;;13.36;38.78
47080;BME280;33067;49.296;14.470;2022-10-13T01:55:31;97593.62;;;13.49;38.43
47080;BME280;33067;49.296;14.470;2022-10-13T01:57:56;97593.00;;;13.24;38.38
47080;BME280;33067;49.296;14.470;2022-10-13T02:00:22;97593.32;;;13.30;38.18
47080;BME280;33067;49.296;14.470;2022-10-13T02:02:57;97594.25;;;13.31;38.63
47080;BME280;33067;49.296;14.470;2022-10-13T02:05:20;97590.19;;;13.31;38.44
47080;BME280;33067;49.296;14.470;2022-10-13T02:07:45;97592.35;;;13.13;38.31
47080;BME280;33067;49.296;14.470;2022-10-13T02:13:02;97595.40;;;13.32;38.51
47080;BME280;33067;49.296;14.470;2022-10-13T02:15:31;97592.32;;;13.16;38.84
47080;BME280;33067;49.296;14.470;2022-10-13T02:17:51;97588.67;;;13.14;39.25
47080;BME280;33067;49.296;14.470;2022-10-13T02:20:19;97590.29;;;12.91;39.60
47080;BME280;33067;49.296;14.470;2022-10-13T02:22:45;97590.79;;;12.77;39.89
47080;BME280;33067;49.296;14.470;2022-10-13T02:25:08;97590.07;;;12.78;39.91
47080;BME280;33067;49.296;14.470;2022-10-13T02:27:34;97587.92;;;12.37;40.51
47080;BME280;33067;49.296;14.470;2022-10-13T02:29:59;97589.70;;;12.51;40.28
47080;BME280;33067;49.296;14.470;2022-10-13T02:32:23;97591.94;;;12.57;40.08
47080;BME280;33067;49.296;14.470;2022-10-13T02:34:49;97593.26;;;12.58;39.96
47080;BME280;33067;49.296;14.470;2022-10-13T02:37:14;97590.42;;;12.82;40.03
47080;BME280;33067;49.296;14.470;2022-10-13T02:39:39;97585.16;;;12.58;39.97
47080;BME280;33067;49.296;14.470;2022-10-13T02:42:07;97584.48;;;12.48;40.02
47080;BME280;33067;49.296;14.470;2022-10-13T02:44:30;97588.16;;;12.87;40.22
47080;BME280;33067;49.296;14.470;2022-10-13T02:46:55;97590.07;;;12.61;40.25
47080;BME280;33067;49.296;14.470;2022-10-13T02:49:21;97588.90;;;12.61;40.14
47080;BME280;33067;49.296;14.470;2022-10-13T02:51:46;97593.08;;;12.53;40.17
47080;BME280;33067;49.296;14.470;2022-10-13T02:54:12;97596.76;;;12.24;40.23
47080;BME280;33067;49.296;14.470;2022-10-13T02:56:37;97598.39;;;12.61;40.45
47080;BME280;33067;49.296;14.470;2022-10-13T02:59:03;97596.24;;;12.36;40.47
47080;BME280;33067;49.296;14.470;2022-10-13T03:01:27;97592.30;;;12.34;40.41
47080;BME280;33067;49.296;14.470;2022-10-13T03:03:52;97589.87;;;12.52;40.45
47080;BME280;33067;49.296;14.470;2022-10-13T03:06:18;97592.02;;;12.15;40.50
47080;BME280;33067;49.296;14.470;2022-10-13T03:08:44;97593.29;;;12.41;40.30
47080;BME280;33067;49.296;14.470;2022-10-13T03:11:10;97594.17;;;12.02;40.59
47080;BME280;33067;49.296;14.470;2022-10-13T03:13:36;97593.67;;;12.25;40.57
47080;BME280;33067;49.296;14.470;2022-10-13T03:16:00;97593.41;;;12.18;40.59
47080;BME280;33067;49.296;14.470;2022-10-13T03:18:26;97593.94;;;12.14;40.69
47080;BME280;33067;49.296;14.470;2022-10-13T03:20:56;97596.15;;;12.18;40.57
47080;BME280;33067;49.296;14.470;2022-10-13T03:23:17;97596.78;;;12.24;40.46
47080;BME280;33067;49.296;14.470;2022-10-13T03:25:43;97599.14;;;12.25;40.42
47080;BME280;33067;49.296;14.470;2022-10-13T03:28:08;97600.19;;;12.25;40.18
47080;BME280;33067;49.296;14.470;2022-10-13T03:30:34;97594.66;;;12.13;40.33
47080;BME280;33067;49.296;14.470;2022-10-13T03:32:59;97591.26;;;11.94;40.32
47080;BME280;33067;49.296;14.470;2022-10-13T03:35:25;97592.47;;;11.78;40.53
47080;BME280;33067;49.296;14.470;2022-10-13T03:37:50;97596.88;;;11.73;40.66
47080;BME280;33067;49.296;14.470;2022-10-13T03:40:16;97597.85;;;11.71;40.85
47080;BME280;33067;49.296;14.470;2022-10-13T03:42:42;97594.45;;;11.90;40.85
47080;BME280;33067;49.296;14.470;2022-10-13T03:45:08;97589.60;;;11.59;40.89
47080;BME280;33067;49.296;14.470;2022-10-13T03:47:34;97591.07;;;11.58;40.82
47080;BME280;33067;49.296;14.470;2022-10-13T03:49:58;97588.44;;;11.59;40.90
47080;BME280;33067;49.296;14.470;2022-10-13T03:52:24;97588.62;;;11.81;40.88
47080;BME280;33067;49.296;14.470;2022-10-13T03:54:50;97592.02;;;11.86;40.76
47080;BME280;33067;49.296;14.470;2022-10-13T03:57:15;97596.76;;;11.50;40.32
47080;BME280;33067;49.296;14.470;2022-10-13T03:59:41;97599.10;;;11.57;40.53
47080;BME280;33067;49.296;14.470;2022-10-13T04:02:06;97598.68;;;11.66;40.13
47080;BME280;33067;49.296;14.470;2022-10-13T04:04:30;97593.37;;;11.27;40.54
47080;BME280;33067;49.296;14.470;2022-10-13T04:06:56;97590.29;;;11.05;40.86
47080;BME280;33067;49.296;14.470;2022-10-13T04:09:21;97591.54;;;11.34;41.12
47080;BME280;33067;49.296;14.470;2022-10-13T04:11:49;97593.86;;;11.47;40.94
47080;BME280;33067;49.296;14.470;2022-10-13T04:14:12;97591.33;;;11.50;40.86
47080;BME280;33067;49.296;14.470;2022-10-13T04:16:38;97592.81;;;11.50;40.83
47080;BME280;33067;49.296;14.470;2022-10-13T04:19:04;97598.09;;;11.59;40.67
47080;BME280;33067;49.296;14.470;2022-10-13T04:21:29;97601.95;;;11.59;40.41
47080;BME280;33067;49.296;14.470;2022-10-13T04:23:53;97599.29;;;11.21;40.74
47080;BME280;33067;49.296;14.470;2022-10-13T04:26:20;97597.55;;;11.31;40.90
47080;BME280;33067;49.296;14.470;2022-10-13T04:28:44;97597.88;;;11.32;40.67
47080;BME280;33067;49.296;14.470;2022-10-13T04:31:09;97597.58;;;11.23;40.86
47080;BME280;33067;49.296;14.470;2022-10-13T04:33:34;97597.35;;;11.21;40.81
47080;BME280;33067;49.296;14.470;2022-10-13T04:36:03;97594.87;;;11.09;40.96
47080;BME280;33067;49.296;14.470;2022-10-13T04:38:25;97588.90;;;11.30;40.86
47080;BME280;33067;49.296;14.470;2022-10-13T04:40:50;97589.50;;;11.12;40.95
47080;BME280;33067;49.296;14.470;2022-10-13T04:43:16;97591.54;;;10.76;41.42
47080;BME280;33067;49.296;14.470;2022-10-13T04:45:41;97591.22;;;10.85;41.33
47080;BME280;33067;49.296;14.470;2022-10-13T04:48:07;97589.52;;;11.08;41.31
47080;BME280;33067;49.296;14.470;2022-10-13T04:50:32;97589.12;;;10.98;41.08
47080;BME280;33067;49.296;14.470;2022-10-13T04:52:58;97590.48;;;10.79;41.02
47080;BME280;33067;49.296;14.470;2022-10-13T04:55:24;97593.63;;;11.08;40.92
47080;BME280;33067;49.296;14.470;2022-10-13T04:57:49;97592.85;;;11.07;41.03
47080;BME280;33067;49.296;14.470;2022-10-13T05:00:15;97588.99;;;11.15;40.89
47080;BME280;33067;49.296;14.470;2022-10-13T05:02:40;97586.27;;;11.01;41.20
47080;BME280;33067;49.296;14.470;2022-10-13T05:05:06;97584.00;;;11.32;40.90
47080;BME280;33067;49.296;14.470;2022-10-13T05:07:31;97582.02;;;10.81;41.14
47080;BME280;33067;49.296;14.470;2022-10-13T05:09:57;97581.51;;;11.36;40.88
47080;BME280;33067;49.296;14.470;2022-10-13T05:12:24;97583.80;;;11.09;40.98
47080;BME280;33067;49.296;14.470;2022-10-13T05:14:47;97583.39;;;11.08;41.14
47080;BME280;33067;49.296;14.470;2022-10-13T05:17:12;97582.79;;;11.33;40.93
47080;BME280;33067;49.296;14.470;2022-10-13T05:19:38;97585.57;;;11.06;40.96
47080;BME280;33067;49.296;14.470;2022-10-13T05:22:04;97586.72;;;11.09;40.60
47080;BME280;33067;49.296;14.470;2022-10-13T05:24:38;97582.46;;;10.98;40.61
47080;BME280;33067;49.296;14.470;2022-10-13T05:26:54;97578.18;;;10.83;40.62
47080;BME280;33067;49.296;14.470;2022-10-13T05:29:19;97578.19;;;11.19;40.30
47080;BME280;33067;49.296;14.470;2022-10-13T05:31:45;97578.55;;;11.06;40.11
47080;BME280;33067;49.296;14.470;2022-10-13T05:34:10;97581.40;;;11.24;40.36
47080;BME280;33067;49.296;14.470;2022-10-13T05:36:36;97585.54;;;11.45;40.65
47080;BME280;33067;49.296;14.470;2022-10-13T05:39:03;97592.78;;;11.14;41.07
47080;BME280;33067;49.296;14.470;2022-10-13T05:41:27;97594.93;;;11.41;41.20
47080;BME280;33067;49.296;14.470;2022-10-13T05:43:54;97596.58;;;11.19;41.13
47080;BME280;33067;49.296;14.470;2022-10-13T05:46:17;97593.41;;;10.97;41.15
47080;BME280;33067;49.296;14.470;2022-10-13T05:48:42;97593.87;;;11.05;40.92
47080;BME280;33067;49.296;14.470;2022-10-13T05:51:11;97594.32;;;11.21;41.00
47080;BME280;33067;49.296;14.470;2022-10-13T05:53:35;97596.66;;;11.41;40.90
47080;BME280;33067;49.296;14.470;2022-10-13T05:56:02;97599.21;;;11.37;41.19
47080;BME280;33067;49.296;14.470;2022-10-13T05:58:26;97598.04;;;11.21;41.29
47080;BME280;33067;49.296;14.470;2022-10-13T06:00:48;97596.64;;;11.40;41.19
47080;BME280;33067;49.296;14.470;2022-10-13T06:03:16;97597.88;;;11.30;40.97
47080;BME280;33067;49.296;14.470;2022-10-13T06:05:40;97601.37;;;11.37;41.22
47080;BME280;33067;49.296;14.470;2022-10-13T06:08:08;97601.13;;;10.94;41.38
47080;BME280;33067;49.296;14.470;2022-10-13T06:10:31;97598.77;;;11.10;41.65
47080;BME280;33067;49.296;14.470;2022-10-13T06:12:57;97597.44;;;10.86;41.72
47080;BME280;33067;49.296;14.470;2022-10-13T06:15:24;97600.84;;;11.02;41.61
47080;BME280;33067;49.296;14.470;2022-10-13T06:17:50;97599.77;;;10.91;41.58
47080;BME280;33067;49.296;14.470;2022-10-13T06:20:13;97599.85;;;11.58;41.27
47080;BME280;33067;49.296;14.470;2022-10-13T06:22:41;97599.72;;;11.76;41.22
47080;BME280;33067;49.296;14.470;2022-10-13T06:25:04;97596.14;;;11.50;41.30
47080;BME280;33067;49.296;14.470;2022-10-13T06:27:30;97589.54;;;11.46;41.54
47080;BME280;33067;49.296;14.470;2022-10-13T06:30:02;97590.96;;;11.49;41.70
47080;BME280;33067;49.296;14.470;2022-10-13T06:32:22;97590.98;;;11.33;41.74
47080;BME280;33067;49.296;14.470;2022-10-13T06:34:56;97594.82;;;11.66;41.87
47080;BME280;33067;49.296;14.470;2022-10-13T06:42:01;97596.11;;;12.10;41.70
47080;BME280;33067;49.296;14.470;2022-10-13T06:44:27;97600.45;;;12.19;41.85
47080;BME280;33067;49.296;14.470;2022-10-13T06:46:51;97595.37;;;11.75;42.65
47080;BME280;33067;49.296;14.470;2022-10-13T06:49:17;97596.96;;;11.55;42.98
47080;BME280;33067;49.296;14.470;2022-10-13T06:51:43;97597.73;;;11.46;43.24
47080;BME280;33067;49.296;14.470;2022-10-13T06:54:09;97595.22;;;11.72;42.79
47080;BME280;33067;49.296;14.470;2022-10-13T06:56:33;97592.70;;;12.58;42.45
47080;BME280;33067;49.296;14.470;2022-10-13T06:59:00;97593.53;;;12.24;42.49
47080;BME280;33067;49.296;14.470;2022-10-13T07:01:24;97592.69;;;12.22;42.59
47080;BME280;33067;49.296;14.470;2022-10-13T07:03:49;97589.23;;;12.37;42.62
47080;BME280;33067;49.296;14.470;2022-10-13T07:06:14;97588.12;;;12.18;42.54
47080;BME280;33067;49.296;14.470;2022-10-13T07:08:40;97587.50;;;12.45;42.59
47080;BME280;33067;49.296;14.470;2022-10-13T07:11:06;97584.91;;;12.58;42.81
47080;BME280;33067;49.296;14.470;2022-10-13T07:13:32;97586.82;;;12.37;43.04
47080;BME280;33067;49.296;14.470;2022-10-13T07:15:57;97580.86;;;12.70;43.39
47080;BME280;33067;49.296;14.470;2022-10-13T07:18:23;97578.72;;;12.26;43.40
47080;BME280;33067;49.296;14.470;2022-10-13T07:23:17;97588.17;;;12.43;43.91
47080;BME280;33067;49.296;14.470;2022-10-13T07:25:39;97585.34;;;12.37;44.32
47080;BME280;33067;49.296;14.470;2022-10-13T07:28:03;97579.39;;;13.09;44.16
47080;BME280;33067;49.296;14.470;2022-10-13T07:30:29;97576.86;;;12.66;44.14
47080;BME280;33067;49.296;14.470;2022-10-13T07:32:56;97574.35;;;13.10;44.47
47080;BME280;33067;49.296;14.470;2022-10-13T07:35:20;97571.69;;;12.48;44.44
47080;BME280;33067;49.296;14.470;2022-10-13T07:37:45;97569.41;;;12.37;44.92
47080;BME280;33067;49.296;14.470;2022-10-13T07:40:11;97571.96;;;12.68;44.67
47080;BME280;33067;49.296;14.470;2022-10-13T07:42:35;97574.46;;;12.82;45.00
47080;BME280;33067;49.296;14.470;2022-10-13T07:45:01;97569.41;;;12.87;44.86
47080;BME280;33067;49.296;14.470;2022-10-13T07:47:27;97570.61;;;12.75;44.70
47080;BME280;33067;49.296;14.470;2022-10-13T07:49:52;97568.11;;;12.85;44.72
47080;BME280;33067;49.296;14.470;2022-10-13T07:52:17;97567.60;;;13.01;44.73
47080;BME280;33067;49.296;14.470;2022-10-13T07:54:42;97566.50;;;12.87;45.23
47080;BME280;33067;49.296;14.470;2022-10-13T07:57:07;97564.83;;;12.95;45.33
47080;BME280;33067;49.296;14.470;2022-10-13T07:59:34;97565.95;;;13.22;44.96
47080;BME280;33067;49.296;14.470;2022-10-13T08:07:20;97567.93;;;13.79;44.11
47080;BME280;33067;49.296;14.470;2022-10-13T08:09:20;97568.90;;;13.35;44.29
47080;BME280;33067;49.296;14.470;2022-10-13T08:11:45;97565.50;;;13.70;43.95
47080;BME280;33067;49.296;14.470;2022-10-13T08:17:03;97564.88;;;14.10;43.33
47080;BME280;33067;49.296;14.470;2022-10-13T08:31:09;97551.22;;;14.69;41.81
47080;BME280;33067;49.296;14.470;2022-10-13T08:34:03;97549.89;;;14.70;41.95
47080;BME280;33067;49.296;14.470;2022-10-13T08:35:54;97548.25;;;14.93;41.93
47080;BME280;33067;49.296;14.470;2022-10-13T08:38:20;97549.90;;;14.56;42.28
47080;BME280;33067;49.296;14.470;2022-10-13T08:40:46;97551.67;;;14.60;42.29
47080;BME280;33067;49.296;14.470;2022-10-13T08:43:16;97551.80;;;15.12;42.34
47080;BME280;33067;49.296;14.470;2022-10-13T08:45:37;97550.34;;;14.60;42.68
47080;BME280;33067;49.296;14.470;2022-10-13T08:48:09;97551.14;;;14.99;42.40
47080;BME280;33067;49.296;14.470;2022-10-13T08:50:32;97552.37;;;14.92;42.37
47080;BME280;33067;49.296;14.470;2022-10-13T08:52:57;97551.92;;;14.97;42.34
47080;BME280;33067;49.296;14.470;2022-10-13T08:55:29;97547.81;;;14.80;42.30
47080;BME280;33067;49.296;14.470;2022-10-13T08:57:47;97546.94;;;14.83;42.37
47080;BME280;33067;49.296;14.470;2022-10-13T09:00:12;97548.24;;;15.10;41.81
47080;BME280;33067;49.296;14.470;2022-10-13T09:02:57;97547.88;;;15.08;41.63
47080;BME280;33067;49.296;14.470;2022-10-13T09:05:03;97547.98;;;15.53;41.33
47080;BME280;33067;49.296;14.470;2022-10-13T09:07:29;97546.18;;;15.31;41.23
47080;BME280;33067;49.296;14.470;2022-10-13T09:09:54;97546.05;;;15.48;40.98
47080;BME280;33067;49.296;14.470;2022-10-13T09:12:19;97545.85;;;15.83;41.04
47080;BME280;33067;49.296;14.470;2022-10-13T09:17:27;97546.98;;;15.71;40.57
47080;BME280;33067;49.296;14.470;2022-10-13T09:24:47;97546.98;;;16.05;39.69
47080;BME280;33067;49.296;14.470;2022-10-13T09:34:15;97531.81;;;16.66;38.51
47080;BME280;33067;49.296;14.470;2022-10-13T09:36:32;97530.95;;;16.65;38.50
47080;BME280;33067;49.296;14.470;2022-10-13T09:39:04;97530.34;;;16.61;38.74
47080;BME280;33067;49.296;14.470;2022-10-13T09:41:23;97527.95;;;16.30;39.23
47080;BME280;33067;49.296;14.470;2022-10-13T09:43:58;97525.43;;;16.55;39.21
47080;BME280;33067;49.296;14.470;2022-10-13T09:46:20;97523.13;;;16.41;39.60
47080;BME280;33067;49.296;14.470;2022-10-13T09:48:40;97523.35;;;15.95;39.95
47080;BME280;33067;49.296;14.470;2022-10-13T09:51:05;97520.38;;;16.27;39.81
47080;BME280;33067;49.296;14.470;2022-10-13T09:53:41;97517.26;;;16.02;39.55
47080;BME280;33067;49.296;14.470;2022-10-13T09:56:34;97510.15;;;16.44;39.46
47080;BME280;33067;49.296;14.470;2022-10-13T10:06:10;97484.48;;;16.50;39.29
47080;BME280;33067;49.296;14.470;2022-10-13T10:08:11;97482.90;;;16.52;39.10
47080;BME280;33067;49.296;14.470;2022-10-13T10:10:57;97481.23;;;16.37;39.51
47080;BME280;33067;49.296;14.470;2022-10-13T10:13:15;97476.26;;;16.02;40.25
47080;BME280;33067;49.296;14.470;2022-10-13T10:23:35;97467.28;;;16.95;38.88
47080;BME280;33067;49.296;14.470;2022-10-13T10:25:25;97464.54;;;17.17;38.69
47080;BME280;33067;49.296;14.470;2022-10-13T10:28:00;97457.91;;;17.58;38.20
47080;BME280;33067;49.296;14.470;2022-10-13T10:29:58;97461.62;;;17.14;38.53
47080;BME280;33067;49.296;14.470;2022-10-13T10:32:56;97456.34;;;16.98;38.59
47080;BME280;33067;49.296;14.470;2022-10-13T10:40:07;97444.23;;;17.80;38.04
47080;BME280;33067;49.296;14.470;2022-10-13T10:47:13;97443.32;;;17.34;38.49
47080;BME280;33067;49.296;14.470;2022-10-13T10:51:42;97437.31;;;17.01;39.16
47080;BME280;33067;49.296;14.470;2022-10-13T10:54:20;97433.02;;;17.11;38.80
47080;BME280;33067;49.296;14.470;2022-10-13T10:56:38;97429.88;;;17.31;38.40
47080;BME280;33067;49.296;14.470;2022-10-13T11:03:59;97420.01;;;17.53;38.71
47080;BME280;33067;49.296;14.470;2022-10-13T11:06:23;97414.86;;;18.13;37.85
47080;BME280;33067;49.296;14.470;2022-10-13T11:08:40;97411.41;;;18.06;37.52
47080;BME280;33067;49.296;14.470;2022-10-13T11:14:02;97408.46;;;18.88;37.44
47080;BME280;33067;49.296;14.470;2022-10-13T11:20:58;97403.88;;;19.17;36.50
47080;BME280;33067;49.296;14.470;2022-10-13T11:23:30;97402.68;;;19.28;36.39
47080;BME280;33067;49.296;14.470;2022-10-13T11:25:43;97396.07;;;19.43;36.01
47080;BME280;33067;49.296;14.470;2022-10-13T11:30:40;97394.84;;;19.35;36.26
47080;BME280;33067;49.296;14.470;2022-10-13T11:35:25;97384.56;;;19.32;35.69
47080;BME280;33067;49.296;14.470;2022-10-13T11:37:52;97385.07;;;19.61;36.06
47080;BME280;33067;49.296;14.470;2022-10-13T11:40:24;97381.64;;;19.15;35.57
47080;BME280;33067;49.296;14.470;2022-10-13T11:45:15;97374.89;;;18.99;35.98
47080;BME280;33067;49.296;14.470;2022-10-13T11:50:06;97370.54;;;19.51;35.48
47080;BME280;33067;49.296;14.470;2022-10-13T11:52:37;97366.59;;;19.57;35.07
47080;BME280;33067;49.296;14.470;2022-10-13T11:57:19;97359.33;;;19.44;35.04
47080;BME280;33067;49.296;14.470;2022-10-13T11:59:45;97355.73;;;19.76;34.88
47080;BME280;33067;49.296;14.470;2022-10-13T12:02:10;97351.17;;;19.94;34.10
47080;BME280;33067;49.296;14.470;2022-10-13T12:04:27;97346.73;;;20.04;34.45
47080;BME280;33067;49.296;14.470;2022-10-13T12:06:55;97347.87;;;20.33;34.09
47080;BME280;33067;49.296;14.470;2022-10-13T12:09:19;97341.54;;;20.47;33.73
47080;BME280;33067;49.296;14.470;2022-10-13T12:11:45;97333.85;;;19.92;34.26
47080;BME280;33067;49.296;14.470;2022-10-13T12:14:18;97331.25;;;19.13;35.11
47080;BME280;33067;49.296;14.470;2022-10-13T12:19:18;97322.19;;;19.79;34.60
47080;BME280;33067;49.296;14.470;2022-10-13T12:23:51;97316.30;;;19.44;35.01
47080;BME280;33067;49.296;14.470;2022-10-13T12:26:26;97317.93;;;18.48;36.13
47080;BME280;33067;49.296;14.470;2022-10-13T12:33:33;97314.62;;;19.55;35.19
47080;BME280;33067;49.296;14.470;2022-10-13T12:36:11;97311.12;;;19.63;35.22
47080;BME280;33067;49.296;14.470;2022-10-13T12:43:18;97313.91;;;20.50;34.31
47080;BME280;33067;49.296;14.470;2022-10-13T12:45:39;97319.08;;;20.49;34.34
47080;BME280;33067;49.296;14.470;2022-10-13T12:48:25;97321.18;;;20.65;33.88
47080;BME280;33067;49.296;14.470;2022-10-13T12:50:37;97320.47;;;20.51;34.21
47080;BME280;33067;49.296;14.470;2022-10-13T12:53:10;97318.64;;;20.37;34.40
47080;BME280;33067;49.296;14.470;2022-10-13T12:55:22;97317.81;;;20.35;34.42
47080;BME280;33067;49.296;14.470;2022-10-13T12:57:48;97315.20;;;19.92;34.75
47080;BME280;33067;49.296;14.470;2022-10-13T13:00:21;97311.51;;;20.26;34.60
47080;BME280;33067;49.296;14.470;2022-10-13T13:02:38;97307.81;;;20.44;34.20
47080;BME280;33067;49.296;14.470;2022-10-13T13:07:30;97299.03;;;20.27;34.52
47080;BME280;33067;49.296;14.470;2022-10-13T13:12:22;97286.30;;;20.14;34.70
47080;BME280;33067;49.296;14.470;2022-10-13T13:14:46;97282.64;;;19.66;35.68
47080;BME280;33067;49.296;14.470;2022-10-13T13:17:12;97279.46;;;18.65;36.98
47080;BME280;33067;49.296;14.470;2022-10-13T13:19:36;97277.22;;;18.56;37.43
47080;BME280;33067;49.296;14.470;2022-10-13T13:22:03;97279.81;;;18.80;37.49
47080;BME280;33067;49.296;14.470;2022-10-13T13:24:27;97280.62;;;18.46;37.64
47080;BME280;33067;49.296;14.470;2022-10-13T13:26:52;97275.07;;;18.96;37.34
47080;BME280;33067;49.296;14.470;2022-10-13T13:29:17;97273.45;;;18.84;37.34
47080;BME280;33067;49.296;14.470;2022-10-13T13:31:43;97263.54;;;18.54;37.47
47080;BME280;33067;49.296;14.470;2022-10-13T13:34:08;97261.05;;;18.87;37.27
47080;BME280;33067;49.296;14.470;2022-10-13T13:36:33;97263.50;;;18.79;37.47
47080;BME280;33067;49.296;14.470;2022-10-13T13:38:59;97257.75;;;18.17;38.07
47080;BME280;33067;49.296;14.470;2022-10-13T13:41:24;97262.01;;;18.97;37.66
47080;BME280;33067;49.296;14.470;2022-10-13T13:43:49;97256.60;;;19.47;37.09
47080;BME280;33067;49.296;14.470;2022-10-13T13:46:16;97256.72;;;19.55;36.51
47080;BME280;33067;49.296;14.470;2022-10-13T13:48:40;97251.19;;;19.70;36.72
47080;BME280;33067;49.296;14.470;2022-10-13T13:51:07;97254.30;;;19.65;36.51
47080;BME280;33067;49.296;14.470;2022-10-13T13:53:31;97261.26;;;19.82;36.07
47080;BME280;33067;49.296;14.470;2022-10-13T13:55:56;97261.08;;;19.84;36.12
47080;BME280;33067;49.296;14.470;2022-10-13T13:58:22;97262.50;;;19.75;36.20
47080;BME280;33067;49.296;14.470;2022-10-13T14:00:47;97257.43;;;19.94;36.02
47080;BME280;33067;49.296;14.470;2022-10-13T14:03:13;97256.24;;;19.71;36.24
47080;BME280;33067;49.296;14.470;2022-10-13T14:05:38;97251.21;;;20.07;36.19
47080;BME280;33067;49.296;14.470;2022-10-13T14:08:03;97248.52;;;19.58;36.41
47080;BME280;33067;49.296;14.470;2022-10-13T14:10:29;97249.10;;;19.43;36.44
47080;BME280;33067;49.296;14.470;2022-10-13T14:13:01;97249.18;;;19.78;36.38
47080;BME280;33067;49.296;14.470;2022-10-13T14:15:43;97246.77;;;19.86;36.42
47080;BME280;33067;49.296;14.470;2022-10-13T14:17:57;97245.38;;;19.72;36.36
47080;BME280;33067;49.296;14.470;2022-10-13T14:20:33;97244.03;;;19.54;36.92
47080;BME280;33067;49.296;14.470;2022-10-13T14:22:52;97238.53;;;19.27;37.39
47080;BME280;33067;49.296;14.470;2022-10-13T14:25:40;97234.27;;;19.10;37.64
47080;BME280;33067;49.296;14.470;2022-10-13T14:27:52;97235.30;;;18.36;38.71
47080;BME280;33067;49.296;14.470;2022-10-13T14:30:09;97235.38;;;18.59;38.11
47080;BME280;33067;49.296;14.470;2022-10-13T14:32:40;97237.82;;;18.81;38.20
47080;BME280;33067;49.296;14.470;2022-10-13T14:37:32;97236.18;;;18.54;38.36
47080;BME280;33067;49.296;14.470;2022-10-13T14:42:22;97237.45;;;19.18;37.58